Terminal Aerodrome Forecast
Issued by NWS Cleveland, OH

Home | Current Version | Previous Version | Graphics & Text | Print | Product List | Glossary Off
Versions: 1 2 3 4 5 6 7 8 9 10 11 12 13 14 15

664
FTUS41 KCLE 291155
TAFCAK
TAF
KCAK 291155Z 2912/3012 20006KT P6SM SCT040 BKN250
     FM291800 20010G18KT P6SM VCSH BKN050
     FM300000 20006KT P6SM VCSH SCT035 BKN050
     FM300600 23004KT 4SM BR SCT100=

USA.gov is the U.S. government's official web portal to all federal, state and local government web resources and services.